Time;durP1;ratioP1;P1;durP2;ratioP2;P2;SDS_P1;SDS_P2;PMS_P1;PMS_P2;Temp;Humidity;BMP_temperature;BMP_pressure;BME280_temperature;BME280_humidity;BME280_pressure;Samples;Min_cycle;Max_cycle;Signal;HPM_P1;HPM_P2
2023/01/30 00:01:57;;;;;;;3.78;2.72;;;1.10;99.90;;;;;;5028225;28;20216;-62
2023/01/30 00:04:25;;;;;;;7.43;5.10;;;1.00;99.90;;;;;;5027580;28;20263;-62
2023/01/30 00:06:53;;;;;;;4.28;3.03;;;1.10;99.90;;;;;;5030696;28;20235;-62
2023/01/30 00:09:22;;;;;;;3.40;2.92;;;1.10;99.90;;;;;;5025602;28;20214;-62
2023/01/30 00:11:50;;;;;;;5.78;4.22;;;1.20;99.90;;;;;;5028338;28;20284;-63
2023/01/30 00:14:18;;;;;;;3.55;3.22;;;1.20;99.90;;;;;;5031433;28;20244;-62
2023/01/30 00:16:46;;;;;;;2.85;2.00;;;1.20;99.90;;;;;;5027042;28;20641;-62
2023/01/30 00:19:14;;;;;;;4.65;4.03;;;1.30;99.90;;;;;;5027312;28;20336;-61
2023/01/30 00:21:46;;;;;;;2.53;2.33;;;1.40;99.90;;;;;;5027985;28;20288;-62
2023/01/30 00:24:14;;;;;;;3.33;2.67;;;1.40;99.90;;;;;;5028643;28;20315;-62
2023/01/30 00:26:43;;;;;;;3.92;2.70;;;1.40;99.90;;;;;;5031870;28;20286;-62
2023/01/30 00:29:11;;;;;;;2.90;2.15;;;1.40;99.90;;;;;;5027416;28;20287;-62
2023/01/30 00:31:39;;;;;;;3.85;2.80;;;1.40;99.90;;;;;;5021776;28;20600;-62
2023/01/30 00:34:07;;;;;;;7.80;3.67;;;1.30;99.90;;;;;;5023522;28;20209;-61
2023/01/30 00:36:35;;;;;;;5.35;2.42;;;1.20;99.90;;;;;;5024371;28;20201;-62
2023/01/30 00:39:03;;;;;;;3.38;2.58;;;1.10;99.90;;;;;;5021926;28;20197;-63
2023/01/30 00:47:05;;;;;;;3.35;2.30;;;1.20;99.90;;;;;;5026559;28;20193;-63
2023/01/30 00:49:33;;;;;;;3.40;2.70;;;1.30;99.90;;;;;;5023077;28;20293;-62
2023/01/30 00:52:01;;;;;;;3.50;2.17;;;1.20;99.90;;;;;;5031510;28;20647;-62
2023/01/30 00:54:30;;;;;;;7.07;3.65;;;1.20;99.90;;;;;;5025968;28;20212;-62
2023/01/30 00:56:57;;;;;;;4.10;3.70;;;1.30;99.90;;;;;;5029936;28;20235;-62
2023/01/30 00:59:27;;;;;;;4.60;3.15;;;1.30;99.90;;;;;;5031480;28;20267;-62
2023/01/30 01:01:55;;;;;;;3.22;2.38;;;1.30;99.90;;;;;;5039787;28;20209;-62
2023/01/30 01:04:22;;;;;;;2.35;2.08;;;1.30;99.90;;;;;;5029133;28;20286;-61
2023/01/30 01:06:50;;;;;;;3.15;2.85;;;1.40;99.90;;;;;;5029068;28;20201;-62
2023/01/30 01:09:18;;;;;;;3.00;2.22;;;1.50;99.90;;;;;;5024690;28;20212;-62
2023/01/30 01:11:46;;;;;;;3.13;2.42;;;1.40;99.90;;;;;;5029309;28;20207;-62
2023/01/30 01:14:14;;;;;;;3.50;2.60;;;1.30;99.90;;;;;;5037122;28;20231;-62
2023/01/30 01:16:43;;;;;;;6.00;3.65;;;1.30;99.90;;;;;;5027767;28;20216;-63
2023/01/30 01:19:11;;;;;;;4.35;3.00;;;1.30;99.90;;;;;;5028077;28;20205;-62
2023/01/30 01:21:39;;;;;;;3.83;2.25;;;1.20;99.90;;;;;;5027552;28;20287;-64
2023/01/30 01:24:11;;;;;;;3.55;2.22;;;1.30;99.90;;;;;;5028870;28;20307;-62
2023/01/30 01:26:40;;;;;;;3.25;2.50;;;1.20;99.90;;;;;;5026656;28;20232;-62
2023/01/30 01:29:12;;;;;;;1.60;1.40;;;1.10;99.90;;;;;;5034011;28;20200;-63
2023/01/30 01:31:40;;;;;;;2.97;1.92;;;1.20;99.90;;;;;;5025202;28;20311;-63
2023/01/30 01:34:10;;;;;;;4.68;3.10;;;1.20;99.90;;;;;;5025542;28;20412;-63
2023/01/30 01:36:38;;;;;;;6.25;3.85;;;1.20;99.90;;;;;;5026304;28;20208;-62
2023/01/30 01:39:21;;;;;;;4.78;3.60;;;1.30;99.90;;;;;;5025935;28;20216;-62
2023/01/30 01:41:47;;;;;;;3.10;2.20;;;1.40;99.90;;;;;;5026974;28;20197;-62
2023/01/30 01:44:16;;;;;;;5.70;2.88;;;1.30;99.90;;;;;;5025426;28;20228;-62
2023/01/30 01:46:48;;;;;;;3.10;2.15;;;1.30;99.90;;;;;;5027690;28;20232;-62
2023/01/30 01:49:22;;;;;;;2.90;2.60;;;1.30;99.90;;;;;;5029675;28;20591;-62
2023/01/30 01:51:54;;;;;;;2.47;2.08;;;1.30;99.90;;;;;;5024723;28;20247;-62
2023/01/30 01:54:29;;;;;;;3.75;2.72;;;1.20;99.90;;;;;;5040117;28;20603;-62
2023/01/30 01:57:00;;;;;;;4.18;2.95;;;1.20;99.90;;;;;;5026252;28;20283;-62
2023/01/30 01:59:32;;;;;;;4.35;3.40;;;1.20;99.90;;;;;;5026610;28;20232;-61
2023/01/30 02:02:05;;;;;;;4.88;2.70;;;1.20;99.90;;;;;;5026441;28;20324;-62
2023/01/30 02:07:23;;;;;;;2.90;2.70;;;1.20;99.90;;;;;;5030030;28;20215;-62
2023/01/30 02:09:52;;;;;;;3.45;2.15;;;1.20;99.90;;;;;;5038783;28;20283;-62
2023/01/30 02:12:20;;;;;;;3.25;2.45;;;1.20;99.90;;;;;;5026682;28;20251;-62
2023/01/30 02:14:48;;;;;;;2.65;2.20;;;1.20;99.90;;;;;;5025324;28;20884;-62
2023/01/30 02:17:16;;;;;;;4.43;3.10;;;1.30;99.90;;;;;;5026158;28;20340;-62
2023/01/30 02:19:51;;;;;;;5.25;2.72;;;1.30;99.90;;;;;;5024609;28;20205;-62
2023/01/30 02:23:08;;;;;;;2.45;1.75;;;1.30;99.90;;;;;;5025003;28;20223;-62
2023/01/30 02:25:54;;;;;;;3.35;1.83;;;1.30;99.90;;;;;;5025004;28;20236;-62
2023/01/30 02:28:48;;;;;;;3.72;2.08;;;1.40;99.90;;;;;;5025331;28;20213;-62
2023/01/30 02:31:32;;;;;;;2.40;2.20;;;1.50;99.90;;;;;;5024189;28;20292;-63
2023/01/30 02:34:12;;;;;;;3.25;2.50;;;1.70;99.90;;;;;;5025570;28;20218;-61
2023/01/30 02:36:50;;;;;;;2.70;2.25;;;1.70;99.90;;;;;;5025470;28;20698;-62
2023/01/30 02:39:26;;;;;;;1.63;1.40;;;1.70;99.90;;;;;;5024762;28;20293;-62
2023/01/30 02:42:03;;;;;;;4.97;2.50;;;1.70;99.90;;;;;;5025013;28;20215;-62
2023/01/30 02:44:39;;;;;;;4.20;3.72;;;1.70;99.90;;;;;;5026472;28;20243;-63
2023/01/30 02:47:13;;;;;;;3.15;1.92;;;1.70;99.90;;;;;;5025089;28;20207;-62
2023/01/30 02:49:45;;;;;;;4.47;3.40;;;1.60;99.90;;;;;;5022869;28;20250;-63
2023/01/30 02:52:15;;;;;;;2.75;2.38;;;1.60;99.90;;;;;;5025413;28;20210;-62
2023/01/30 02:54:45;;;;;;;3.90;3.33;;;1.60;99.90;;;;;;5024427;28;20258;-62
2023/01/30 02:57:19;;;;;;;3.53;3.22;;;1.60;99.90;;;;;;5024846;28;20200;-62
2023/01/30 02:59:50;;;;;;;3.53;3.08;;;1.50;99.90;;;;;;5023453;28;20310;-62
2023/01/30 03:02:49;;;;;;;2.78;1.95;;;1.60;99.90;;;;;;5025925;28;20206;-62
2023/01/30 03:05:30;;;;;;;3.58;2.35;;;1.60;99.90;;;;;;5036287;28;21089;-63
2023/01/30 03:08:07;;;;;;;4.15;2.75;;;1.60;99.90;;;;;;5024841;28;20279;-63
2023/01/30 03:10:39;;;;;;;2.65;2.45;;;1.60;99.90;;;;;;5030094;28;20204;-63
2023/01/30 03:13:14;;;;;;;2.95;2.33;;;1.50;99.90;;;;;;5025008;28;20677;-63
2023/01/30 03:15:47;;;;;;;3.35;2.20;;;1.50;99.90;;;;;;5024196;28;20224;-62
2023/01/30 03:18:19;;;;;;;3.00;2.22;;;1.50;99.90;;;;;;5024617;28;20192;-63
2023/01/30 03:20:47;;;;;;;4.50;2.60;;;1.60;99.90;;;;;;5023277;28;20211;-63
2023/01/30 03:23:15;;;;;;;5.70;3.05;;;1.60;99.90;;;;;;5025176;28;20209;-63
2023/01/30 03:25:45;;;;;;;3.05;2.28;;;1.60;99.90;;;;;;5024048;28;20229;-63
2023/01/30 03:28:16;;;;;;;2.33;1.92;;;1.60;99.90;;;;;;5022658;28;20212;-62
2023/01/30 03:30:44;;;;;;;3.42;2.83;;;1.60;99.90;;;;;;5024340;28;20208;-62
2023/01/30 03:33:12;;;;;;;3.13;2.33;;;1.70;99.90;;;;;;5026409;28;20228;-62
2023/01/30 03:35:42;;;;;;;2.30;2.10;;;1.70;99.90;;;;;;5023424;28;20225;-62
2023/01/30 03:38:10;;;;;;;4.40;2.38;;;1.70;99.90;;;;;;5025798;28;21638;-63
2023/01/30 03:40:39;;;;;;;4.95;2.75;;;1.60;99.90;;;;;;5023338;28;20295;-62
2023/01/30 03:43:06;;;;;;;3.95;2.25;;;1.70;99.90;;;;;;5023989;28;20707;-62
2023/01/30 03:45:35;;;;;;;3.00;2.70;;;1.70;99.90;;;;;;5025256;28;20243;-62
2023/01/30 03:48:04;;;;;;;3.58;2.35;;;1.60;99.90;;;;;;5023831;28;20220;-62
2023/01/30 03:50:32;;;;;;;3.47;2.40;;;1.60;99.90;;;;;;5025682;28;20203;-62
2023/01/30 03:53:03;;;;;;;3.83;2.22;;;1.60;99.90;;;;;;5031466;28;20200;-63
2023/01/30 03:55:31;;;;;;;5.32;2.13;;;1.60;99.90;;;;;;5032938;28;20247;-63
2023/01/30 03:57:59;;;;;;;3.15;2.53;;;1.50;99.90;;;;;;5043075;28;20562;-62
2023/01/30 04:00:27;;;;;;;4.20;3.28;;;1.50;99.90;;;;;;5039931;28;20292;-62
2023/01/30 04:02:56;;;;;;;2.72;2.50;;;1.50;99.90;;;;;;5031173;28;20207;-62
2023/01/30 04:05:24;;;;;;;3.38;2.40;;;1.50;99.90;;;;;;5030367;28;20693;-62
2023/01/30 04:07:55;;;;;;;2.80;2.38;;;1.60;99.90;;;;;;5031016;28;20280;-62
2023/01/30 04:10:25;;;;;;;2.60;2.25;;;1.50;99.90;;;;;;5029283;28;20295;-62
2023/01/30 04:12:53;;;;;;;4.13;3.00;;;1.40;99.90;;;;;;5030917;28;20224;-62
2023/01/30 04:15:21;;;;;;;4.55;2.45;;;1.40;99.90;;;;;;5030438;28;20217;-62
2023/01/30 04:17:49;;;;;;;2.75;2.42;;;1.40;99.90;;;;;;5028331;28;20201;-60
2023/01/30 04:20:18;;;;;;;3.83;2.97;;;1.40;99.90;;;;;;5030058;28;20295;-62
2023/01/30 04:22:46;;;;;;;3.13;2.63;;;1.40;99.90;;;;;;5030748;28;20224;-62
2023/01/30 04:25:14;;;;;;;3.42;2.58;;;1.40;99.90;;;;;;5030931;28;20212;-62
2023/01/30 04:27:44;;;;;;;5.43;3.40;;;1.40;99.90;;;;;;5030791;28;20189;-61
2023/01/30 04:30:12;;;;;;;5.50;4.18;;;1.50;99.90;;;;;;5029513;28;20197;-62
2023/01/30 04:32:40;;;;;;;3.30;3.00;;;1.40;99.90;;;;;;5031342;28;20324;-62
2023/01/30 04:35:08;;;;;;;3.90;2.65;;;1.50;99.90;;;;;;5033707;28;20220;-62
2023/01/30 04:37:36;;;;;;;2.35;2.15;;;1.50;99.90;;;;;;5034609;28;20287;-62
2023/01/30 04:40:05;;;;;;;4.53;4.03;;;1.50;99.90;;;;;;5026158;28;20220;-62
2023/01/30 04:42:33;;;;;;;4.20;2.60;;;1.50;99.90;;;;;;5027624;28;20200;-62
2023/01/30 04:45:02;;;;;;;4.22;2.85;;;1.50;99.90;;;;;;5026395;28;20254;-62
2023/01/30 04:47:30;;;;;;;2.67;2.17;;;1.60;99.90;;;;;;5027339;28;20207;-62
2023/01/30 04:49:58;;;;;;;3.35;2.40;;;1.60;99.90;;;;;;5025388;28;20223;-62
2023/01/30 04:52:26;;;;;;;4.97;4.10;;;1.60;99.90;;;;;;5028297;28;20854;-62
2023/01/30 04:54:54;;;;;;;3.55;2.65;;;1.60;99.90;;;;;;5027359;28;20223;-61
2023/01/30 04:57:22;;;;;;;3.78;3.00;;;1.60;99.90;;;;;;5027104;28;20670;-62
2023/01/30 04:59:49;;;;;;;3.40;2.97;;;1.70;99.90;;;;;;5026674;28;20204;-62
2023/01/30 05:02:19;;;;;;;4.22;3.20;;;1.70;99.90;;;;;;5034232;28;20747;-62
2023/01/30 05:04:50;;;;;;;7.57;4.75;;;1.70;99.90;;;;;;5026542;28;20224;-62
2023/01/30 05:07:18;;;;;;;2.55;1.35;;;1.70;99.90;;;;;;5026527;28;20670;-62
2023/01/30 05:09:45;;;;;;;2.83;2.30;;;1.70;99.90;;;;;;5024841;28;20291;-62
2023/01/30 05:12:13;;;;;;;4.32;3.95;;;1.70;99.90;;;;;;5024403;28;20726;-62
2023/01/30 05:14:41;;;;;;;4.15;3.42;;;1.70;99.90;;;;;;5026289;28;20613;-62
2023/01/30 05:17:09;;;;;;;3.00;2.35;;;1.70;99.90;;;;;;5026138;28;20203;-62
2023/01/30 05:19:38;;;;;;;3.90;2.40;;;1.70;99.90;;;;;;5025669;28;20197;-61
2023/01/30 05:22:06;;;;;;;3.03;2.50;;;1.70;99.90;;;;;;5024854;28;20615;-62
2023/01/30 05:24:34;;;;;;;2.35;1.92;;;1.80;99.90;;;;;;5026592;28;20220;-61
2023/01/30 05:27:02;;;;;;;2.63;2.20;;;1.80;99.90;;;;;;5026431;28;20242;-61
2023/01/30 05:29:30;;;;;;;1.63;1.52;;;1.80;99.90;;;;;;5025939;28;20279;-61
2023/01/30 05:31:57;;;;;;;2.92;2.60;;;1.80;99.90;;;;;;5025317;28;20201;-62
2023/01/30 05:34:26;;;;;;;3.67;2.50;;;1.80;99.90;;;;;;5027720;28;20217;-62
2023/01/30 05:36:55;;;;;;;3.42;2.22;;;1.80;99.90;;;;;;5025637;28;20286;-62
2023/01/30 05:39:22;;;;;;;2.13;1.92;;;1.80;99.90;;;;;;5028035;28;20280;-61
2023/01/30 05:41:51;;;;;;;4.70;3.00;;;1.80;99.90;;;;;;5026000;28;20287;-65
2023/01/30 05:44:19;;;;;;;7.47;3.55;;;1.80;99.90;;;;;;5023458;28;20251;-64
2023/01/30 05:46:46;;;;;;;3.60;3.28;;;1.80;99.90;;;;;;5024470;28;20225;-64
2023/01/30 05:49:14;;;;;;;2.75;1.92;;;1.80;99.90;;;;;;5024139;28;20654;-64
2023/01/30 05:51:42;;;;;;;2.10;1.67;;;1.80;99.90;;;;;;5025608;28;20627;-64
2023/01/30 05:54:12;;;;;;;2.17;1.85;;;1.80;99.90;;;;;;5025789;28;20263;-64
2023/01/30 05:56:40;;;;;;;2.35;1.73;;;1.70;99.90;;;;;;5024566;28;20198;-63
2023/01/30 05:59:11;;;;;;;2.47;2.03;;;1.80;99.90;;;;;;5025516;28;20204;-64
2023/01/30 06:01:39;;;;;;;4.20;2.67;;;1.80;99.90;;;;;;5024165;28;20307;-63
2023/01/30 06:04:07;;;;;;;1.33;1.10;;;1.80;99.90;;;;;;5026656;28;20316;-64
2023/01/30 06:06:35;;;;;;;2.08;1.88;;;1.80;99.90;;;;;;5029865;28;20561;-64
2023/01/30 06:09:03;;;;;;;4.13;2.88;;;1.80;99.90;;;;;;5024505;28;20192;-64
2023/01/30 06:11:32;;;;;;;2.60;1.90;;;1.70;99.90;;;;;;5022408;28;20198;-65
2023/01/30 06:14:00;;;;;;;3.33;2.15;;;1.70;99.90;;;;;;5024993;28;20307;-64
2023/01/30 06:16:28;;;;;;;2.88;2.05;;;1.70;99.90;;;;;;5022964;28;20192;-64
2023/01/30 06:18:56;;;;;;;4.00;2.75;;;1.70;99.90;;;;;;5024001;28;20288;-64
2023/01/30 06:21:24;;;;;;;2.50;1.63;;;1.70;99.90;;;;;;5022779;28;20223;-64
2023/01/30 06:23:52;;;;;;;3.25;2.35;;;1.70;99.90;;;;;;5025912;28;20307;-64
2023/01/30 06:26:20;;;;;;;2.28;1.92;;;1.70;99.90;;;;;;5026513;28;20263;-64
2023/01/30 06:28:49;;;;;;;2.40;1.85;;;1.60;99.90;;;;;;5025023;28;20678;-64
2023/01/30 06:31:17;;;;;;;2.95;2.00;;;1.70;99.90;;;;;;5023371;28;20216;-64
2023/01/30 06:33:45;;;;;;;2.88;1.63;;;1.70;99.90;;;;;;5024940;28;20725;-64
2023/01/30 06:36:13;;;;;;;2.60;2.40;;;1.70;99.90;;;;;;5025275;28;20280;-65
2023/01/30 06:38:41;;;;;;;3.65;2.20;;;1.70;99.90;;;;;;5024207;28;20296;-64
2023/01/30 06:41:09;;;;;;;4.05;3.45;;;1.70;99.90;;;;;;5023202;28;20566;-64
2023/01/30 06:43:37;;;;;;;1.67;1.58;;;1.80;99.90;;;;;;5025634;28;20207;-64
2023/01/30 06:46:06;;;;;;;3.05;2.13;;;1.80;99.90;;;;;;5024770;28;20232;-64
2023/01/30 06:48:34;;;;;;;3.38;2.10;;;1.80;99.90;;;;;;5024038;28;20216;-63
2023/01/30 06:51:02;;;;;;;5.72;2.70;;;1.80;99.90;;;;;;5022361;28;20200;-64
2023/01/30 06:53:30;;;;;;;2.78;2.08;;;1.90;99.90;;;;;;5024868;28;20721;-64
2023/01/30 06:55:59;;;;;;;2.22;1.95;;;1.90;99.90;;;;;;5023253;28;20726;-64
2023/01/30 06:58:26;;;;;;;1.92;1.60;;;1.90;99.90;;;;;;5024548;28;20291;-63
2023/01/30 07:00:54;;;;;;;3.83;2.40;;;1.90;99.90;;;;;;5023389;28;20891;-64
2023/01/30 07:03:24;;;;;;;3.42;2.38;;;2.00;99.90;;;;;;5024903;28;20197;-63
2023/01/30 07:05:52;;;;;;;2.15;2.05;;;1.90;99.90;;;;;;5022817;28;20291;-64
2023/01/30 07:08:20;;;;;;;2.83;2.00;;;2.00;99.90;;;;;;5029366;28;20216;-64
2023/01/30 07:10:51;;;;;;;3.00;1.80;;;2.00;99.90;;;;;;5024691;28;20612;-64
2023/01/30 07:13:19;;;;;;;2.40;2.10;;;2.00;99.90;;;;;;5024569;28;20193;-64
2023/01/30 07:15:47;;;;;;;2.50;2.25;;;2.10;99.90;;;;;;5024183;28;20299;-63
2023/01/30 07:18:15;;;;;;;2.22;1.77;;;2.10;99.90;;;;;;5032236;28;20196;-63
2023/01/30 07:20:48;;;;;;;5.75;4.13;;;2.10;99.90;;;;;;5026646;28;20202;-63
2023/01/30 07:23:16;;;;;;;4.00;1.50;;;2.00;99.90;;;;;;5023601;28;20208;-62
2023/01/30 07:25:44;;;;;;;1.80;1.70;;;2.00;99.90;;;;;;5023940;28;20294;-64
2023/01/30 07:28:12;;;;;;;3.33;2.88;;;2.00;99.90;;;;;;5037329;28;20231;-64
2023/01/30 07:30:40;;;;;;;2.58;2.38;;;2.00;99.90;;;;;;5030532;28;20204;-64
2023/01/30 07:33:08;;;;;;;4.72;2.97;;;2.00;99.90;;;;;;5036932;28;20687;-64
2023/01/30 07:35:37;;;;;;;3.50;2.28;;;2.10;99.90;;;;;;5037063;28;20212;-63
2023/01/30 07:38:07;;;;;;;2.45;1.83;;;2.00;99.90;;;;;;5039761;28;20687;-64
2023/01/30 07:40:35;;;;;;;2.20;1.73;;;2.10;99.90;;;;;;5047753;28;20204;-63
2023/01/30 07:43:05;;;;;;;3.40;2.33;;;2.10;99.90;;;;;;5039416;28;20204;-64
2023/01/30 07:45:37;;;;;;;1.73;1.60;;;2.10;99.90;;;;;;5048068;28;20236;-63
2023/01/30 07:48:06;;;;;;;5.78;3.85;;;2.10;99.90;;;;;;5036545;28;20234;-64
2023/01/30 07:50:34;;;;;;;2.72;2.50;;;2.10;99.90;;;;;;5030128;28;20209;-64
2023/01/30 07:53:03;;;;;;;3.85;2.72;;;2.10;99.90;;;;;;5030549;28;20204;-64
2023/01/30 07:55:33;;;;;;;2.42;2.22;;;2.10;99.90;;;;;;5041629;28;20255;-64
2023/01/30 07:58:01;;;;;;;3.10;2.05;;;2.10;99.90;;;;;;5044634;28;20276;-63
2023/01/30 08:00:29;;;;;;;3.47;2.15;;;2.10;99.90;;;;;;5039764;28;20203;-64
2023/01/30 08:02:56;;;;;;;2.58;2.03;;;2.10;99.90;;;;;;5040693;28;20229;-63
2023/01/30 08:05:24;;;;;;;2.78;2.10;;;2.10;99.90;;;;;;5049021;28;20222;-64
2023/01/30 08:07:55;;;;;;;5.55;3.90;;;2.10;99.90;;;;;;5017256;28;20235;-64
2023/01/30 08:10:22;;;;;;;2.30;1.83;;;2.10;99.90;;;;;;5010875;28;20573;-64
2023/01/30 08:12:52;;;;;;;2.42;1.75;;;2.10;99.90;;;;;;5034629;28;20297;-63
2023/01/30 08:15:19;;;;;;;2.75;2.20;;;2.10;99.90;;;;;;5043271;28;20593;-63
2023/01/30 08:17:56;;;;;;;5.30;2.72;;;2.10;99.90;;;;;;5042466;28;20203;-63
2023/01/30 08:20:25;;;;;;;2.78;1.90;;;2.10;99.90;;;;;;5029245;28;20222;-63
2023/01/30 08:22:53;;;;;;;3.08;2.78;;;2.10;99.90;;;;;;5039839;28;20279;-63
2023/01/30 08:25:21;;;;;;;3.90;2.10;;;2.10;99.90;;;;;;5033592;28;20307;-63
2023/01/30 08:27:50;;;;;;;3.28;2.38;;;2.10;99.90;;;;;;5028956;28;20240;-63
2023/01/30 08:30:20;;;;;;;2.65;1.80;;;2.20;99.90;;;;;;5039252;28;20759;-63
2023/01/30 08:32:49;;;;;;;2.25;1.40;;;2.20;99.90;;;;;;5037900;28;20206;-64
2023/01/30 08:35:17;;;;;;;2.35;2.15;;;2.20;99.90;;;;;;5045744;28;20588;-63
2023/01/30 08:37:45;;;;;;;1.10;1.00;;;2.30;99.90;;;;;;5037355;28;20655;-63
2023/01/30 08:40:13;;;;;;;1.40;1.30;;;2.30;99.90;;;;;;5037973;28;20297;-62
2023/01/30 08:42:44;;;;;;;1.40;1.30;;;2.40;99.90;;;;;;5028409;28;20202;-63
2023/01/30 08:45:12;;;;;;;1.83;1.45;;;2.40;99.90;;;;;;5078787;22;20232;-74
2023/01/30 08:47:41;;;;;;;3.22;2.67;;;2.50;99.90;;;;;;5061436;28;20642;-73
2023/01/30 08:50:10;;;;;;;2.00;1.80;;;2.50;99.90;;;;;;5069684;28;20203;-73
2023/01/30 08:52:38;;;;;;;2.03;1.35;;;2.50;99.90;;;;;;5052930;28;20296;-74
2023/01/30 08:55:08;;;;;;;2.30;2.00;;;2.50;99.90;;;;;;5077843;28;20228;-72
2023/01/30 08:57:36;;;;;;;3.00;2.10;;;2.50;99.90;;;;;;5080581;28;20205;-73
2023/01/30 09:00:05;;;;;;;2.28;1.58;;;2.60;99.90;;;;;;5075359;28;20201;-73
2023/01/30 09:02:33;;;;;;;1.25;1.15;;;2.60;99.90;;;;;;5078735;28;20231;-73
2023/01/30 09:05:02;;;;;;;1.05;0.80;;;2.60;99.90;;;;;;5069667;28;20215;-73
2023/01/30 09:07:30;;;;;;;2.15;1.38;;;2.70;99.90;;;;;;5080859;28;20217;-73
2023/01/30 09:09:57;;;;;;;0.70;0.63;;;2.70;99.90;;;;;;5084416;28;20205;-73
2023/01/30 09:12:26;;;;;;;1.40;1.25;;;2.80;99.90;;;;;;5078364;28;20238;-73
2023/01/30 09:14:54;;;;;;;1.08;0.80;;;2.80;99.90;;;;;;5077584;28;20223;-72
2023/01/30 09:17:22;;;;;;;1.05;0.95;;;2.80;99.90;;;;;;5079979;28;20558;-73
2023/01/30 09:19:50;;;;;;;1.20;1.10;;;2.80;99.90;;;;;;5074173;28;20327;-72
2023/01/30 09:22:19;;;;;;;1.63;1.52;;;2.90;99.90;;;;;;5082206;28;20241;-73
2023/01/30 09:24:47;;;;;;;1.13;1.00;;;2.90;99.90;;;;;;5073509;28;20633;-73
2023/01/30 09:27:15;;;;;;;2.42;1.40;;;2.90;99.90;;;;;;5077758;28;20282;-73
2023/01/30 09:29:43;;;;;;;1.40;1.05;;;3.00;99.90;;;;;;5084343;28;20207;-74
2023/01/30 09:32:12;;;;;;;1.10;1.00;;;3.00;99.90;;;;;;5083488;28;20607;-73
2023/01/30 09:34:40;;;;;;;0.90;0.75;;;3.00;99.90;;;;;;5081378;28;20642;-73
2023/01/30 09:37:08;;;;;;;1.50;0.95;;;3.10;99.90;;;;;;5073380;28;20206;-72
2023/01/30 09:39:37;;;;;;;1.42;1.00;;;3.10;99.90;;;;;;5084479;28;20187;-73
2023/01/30 09:42:24;;;;;;;1.05;0.90;;;3.20;99.90;;;;;;5083794;28;20195;-73
2023/01/30 09:45:14;;;;;;;1.10;1.00;;;3.10;99.90;;;;;;5053338;28;20276;-73
2023/01/30 09:47:49;;;;;;;1.88;0.82;;;3.20;99.90;;;;;;5053527;28;20196;-73
2023/01/30 09:50:32;;;;;;;1.42;1.20;;;3.20;99.90;;;;;;5069322;28;20196;-73
2023/01/30 09:53:05;;;;;;;3.13;1.70;;;3.30;99.90;;;;;;5083867;28;20227;-73
2023/01/30 09:55:40;;;;;;;0.80;0.80;;;3.30;99.90;;;;;;5082810;28;20366;-73
2023/01/30 09:58:17;;;;;;;2.55;1.13;;;3.30;99.90;;;;;;5090422;28;20190;-73
2023/01/30 10:00:47;;;;;;;1.35;0.88;;;3.40;99.90;;;;;;5084843;28;20250;-73
2023/01/30 10:03:17;;;;;;;2.08;1.20;;;3.40;99.90;;;;;;5091111;28;20282;-73
2023/01/30 10:05:48;;;;;;;1.65;1.35;;;3.50;99.90;;;;;;5084468;28;20215;-74
2023/01/30 10:08:38;;;;;;;1.27;0.77;;;3.50;99.90;;;;;;5084307;28;20221;-73
2023/01/30 10:11:17;;;;;;;2.08;0.90;;;3.50;99.90;;;;;;5084374;28;20623;-74
2023/01/30 10:14:11;;;;;;;1.58;1.40;;;3.60;99.90;;;;;;5087551;28;20298;-74
2023/01/30 10:16:46;;;;;;;3.08;1.83;;;3.60;99.90;;;;;;5076833;28;20238;-74
2023/01/30 10:19:44;;;;;;;0.70;0.63;;;3.70;99.90;;;;;;5076293;28;20211;-73
2023/01/30 10:22:28;;;;;;;0.88;0.75;;;3.70;99.90;;;;;;5057718;28;20207;-74
2023/01/30 10:25:07;;;;;;;0.93;0.77;;;3.70;99.90;;;;;;5073004;28;20218;-73
2023/01/30 10:27:41;;;;;;;1.38;1.02;;;3.80;99.90;;;;;;5085105;28;20286;-73
2023/01/30 10:30:15;;;;;;;0.90;0.68;;;3.90;99.90;;;;;;5082264;28;20243;-73
2023/01/30 10:32:49;;;;;;;0.60;0.60;;;4.10;99.90;;;;;;5072508;28;20258;-74
2023/01/30 10:35:19;;;;;;;1.20;0.93;;;4.40;99.90;;;;;;5079875;28;20348;-71
2023/01/30 10:37:55;;;;;;;1.20;1.02;;;4.90;99.90;;;;;;5073573;28;20614;-71
2023/01/30 10:40:29;;;;;;;0.60;0.40;;;5.30;99.90;;;;;;5088861;28;20253;-71
2023/01/30 10:43:06;;;;;;;1.23;0.70;;;5.40;99.90;;;;;;5084270;28;20202;-71
2023/01/30 10:45:39;;;;;;;0.90;0.75;;;5.40;99.90;;;;;;5090878;28;20243;-71
2023/01/30 10:48:27;;;;;;;0.70;0.50;;;5.40;99.90;;;;;;5084144;28;20197;-73
2023/01/30 10:51:32;;;;;;;1.25;0.93;;;5.30;99.90;;;;;;5069134;28;20203;-74
2023/01/30 10:54:07;;;;;;;0.60;0.50;;;5.20;99.90;;;;;;5069400;28;20221;-74
2023/01/30 10:56:43;;;;;;;0.90;0.70;;;5.20;99.90;;;;;;5083222;28;20705;-74
2023/01/30 10:59:23;;;;;;;1.08;0.65;;;5.20;99.90;;;;;;5088898;28;20194;-74
2023/01/30 11:01:59;;;;;;;0.73;0.50;;;5.20;99.90;;;;;;5051662;28;20631;-71
2023/01/30 11:04:31;;;;;;;0.60;0.50;;;5.30;99.90;;;;;;5073228;28;20571;-71
2023/01/30 11:07:01;;;;;;;0.50;0.40;;;5.30;99.90;;;;;;5079910;28;20256;-71
2023/01/30 11:09:39;;;;;;;0.60;0.50;;;5.30;99.90;;;;;;5090575;28;20323;-69
2023/01/30 11:12:07;;;;;;;0.60;0.50;;;5.50;99.90;;;;;;5076092;28;20202;-71
2023/01/30 11:14:58;;;;;;;0.80;0.70;;;5.60;99.90;;;;;;5090092;28;20200;-72
2023/01/30 11:17:33;;;;;;;0.70;0.40;;;5.60;99.90;;;;;;5079274;28;20196;-73
2023/01/30 11:20:12;;;;;;;0.80;0.70;;;5.70;99.90;;;;;;5075936;28;20198;-72
2023/01/30 11:22:47;;;;;;;0.60;0.40;;;5.60;99.90;;;;;;5066928;28;20199;-72
2023/01/30 11:25:16;;;;;;;0.60;0.50;;;5.60;99.90;;;;;;5083242;28;20211;-71
2023/01/30 11:27:53;;;;;;;0.90;0.70;;;5.50;99.90;;;;;;5086077;28;20203;-72
2023/01/30 11:30:27;;;;;;;1.35;0.60;;;5.60;99.90;;;;;;5082561;28;20253;-72
2023/01/30 11:33:10;;;;;;;0.75;0.50;;;5.50;99.90;;;;;;5078184;28;20204;-71
2023/01/30 11:35:44;;;;;;;0.60;0.50;;;5.60;99.90;;;;;;5080117;28;20307;-74
2023/01/30 11:38:19;;;;;;;0.60;0.40;;;5.70;99.90;;;;;;5071536;28;20296;-72
2023/01/30 11:40:47;;;;;;;0.50;0.40;;;5.70;99.90;;;;;;5072178;28;20189;-72
2023/01/30 11:43:15;;;;;;;1.15;0.70;;;5.80;99.90;;;;;;5086850;28;20220;-71
2023/01/30 11:45:48;;;;;;;0.70;0.60;;;5.80;99.90;;;;;;5071507;28;20735;-73
2023/01/30 11:48:19;;;;;;;0.60;0.50;;;5.90;99.90;;;;;;5084636;28;20578;-70
2023/01/30 11:51:09;;;;;;;0.75;0.63;;;5.90;99.90;;;;;;5066136;28;20200;-72
2023/01/30 11:53:41;;;;;;;0.50;0.40;;;5.90;99.90;;;;;;5078795;28;20674;-72
2023/01/30 11:56:15;;;;;;;0.80;0.50;;;5.90;99.90;;;;;;5087231;28;20632;-72
2023/01/30 11:58:47;;;;;;;0.60;0.40;;;5.90;99.90;;;;;;5084214;28;20209;-72
2023/01/30 12:01:17;;;;;;;1.15;0.60;;;6.00;99.90;;;;;;5081072;28;20630;-72
2023/01/30 12:03:49;;;;;;;0.50;0.40;;;6.10;99.90;;;;;;5069037;28;20293;-71
2023/01/30 12:06:25;;;;;;;0.93;0.60;;;6.20;99.90;;;;;;5079377;28;20248;-72
2023/01/30 12:08:54;;;;;;;0.77;0.60;;;6.20;99.90;;;;;;5075771;28;20224;-72
2023/01/30 12:11:28;;;;;;;0.57;0.40;;;6.20;99.90;;;;;;5081924;28;20747;-72
2023/01/30 12:14:16;;;;;;;0.60;0.50;;;6.20;99.90;;;;;;5088137;28;20286;-73
2023/01/30 12:16:55;;;;;;;0.60;0.50;;;6.10;99.90;;;;;;5074619;28;20325;-72
2023/01/30 12:19:33;;;;;;;0.60;0.50;;;6.10;99.90;;;;;;5072571;28;20283;-73
2023/01/30 12:22:06;;;;;;;0.60;0.40;;;6.00;99.90;;;;;;5069858;28;20280;-73
2023/01/30 12:24:40;;;;;;;0.50;0.40;;;6.00;99.90;;;;;;5079131;28;20204;-72
2023/01/30 12:27:15;;;;;;;0.60;0.50;;;5.90;99.90;;;;;;5077685;28;20279;-73
2023/01/30 12:29:57;;;;;;;0.52;0.38;;;5.90;99.90;;;;;;5066384;28;20221;-73
2023/01/30 12:32:28;;;;;;;0.50;0.40;;;5.90;99.90;;;;;;5079329;28;20241;-73
2023/01/30 12:34:56;;;;;;;0.60;0.45;;;5.90;99.90;;;;;;5072110;28;20277;-73
2023/01/30 12:37:39;;;;;;;0.60;0.40;;;6.00;99.90;;;;;;5077912;28;20201;-73
2023/01/30 12:40:16;;;;;;;0.93;0.40;;;6.10;99.90;;;;;;5078092;28;20630;-73
2023/01/30 12:43:02;;;;;;;0.50;0.40;;;6.20;99.90;;;;;;5073933;28;20238;-72
2023/01/30 12:45:32;;;;;;;1.60;0.77;;;6.20;99.90;;;;;;5079019;28;20324;-73
2023/01/30 12:48:39;;;;;;;0.60;0.40;;;6.40;99.90;;;;;;5085751;28;20199;-73
2023/01/30 12:51:27;;;;;;;0.70;0.50;;;6.80;99.90;;;;;;5046389;28;20225;-72
2023/01/30 12:54:04;;;;;;;0.60;0.40;;;7.00;99.90;;;;;;5049407;28;20210;-73
2023/01/30 12:56:53;;;;;;;0.50;0.35;;;7.30;99.90;;;;;;5075802;28;20366;-72
2023/01/30 12:59:28;;;;;;;0.60;0.45;;;7.20;99.90;;;;;;5085936;28;20205;-73
2023/01/30 13:02:07;;;;;;;0.75;0.47;;;7.20;99.90;;;;;;5090732;28;20559;-73
2023/01/30 13:04:46;;;;;;;0.80;0.65;;;7.00;99.90;;;;;;5085076;28;20190;-73
2023/01/30 13:07:38;;;;;;;0.60;0.40;;;6.80;99.90;;;;;;5092320;28;20212;-73
2023/01/30 13:10:13;;;;;;;0.80;0.52;;;6.70;99.90;;;;;;5080146;28;20244;-73
2023/01/30 13:12:51;;;;;;;0.80;0.60;;;6.60;99.90;;;;;;5074971;28;20229;-73
2023/01/30 13:15:25;;;;;;;0.60;0.50;;;6.60;99.90;;;;;;5081583;28;20309;-73
2023/01/30 13:18:05;;;;;;;0.63;0.55;;;6.50;99.90;;;;;;5088040;28;20265;-73
2023/01/30 13:20:49;;;;;;;0.98;0.82;;;6.50;99.90;;;;;;5075245;28;20312;-73
2023/01/30 13:23:21;;;;;;;0.60;0.57;;;6.40;99.90;;;;;;5075333;28;20289;-73
2023/01/30 13:25:59;;;;;;;0.60;0.50;;;6.40;99.90;;;;;;5081211;28;20222;-73
2023/01/30 13:28:32;;;;;;;0.60;0.50;;;6.40;99.90;;;;;;5089255;28;20301;-72
2023/01/30 13:31:01;;;;;;;0.50;0.40;;;6.50;99.90;;;;;;5084835;28;20231;-73